Ponce De Leon, Missouri
Current Conditions -  °F | °C
As of 11:15 AM on Friday 24 Oct 2014 (Local Time) from KFWB Reporting Station
Clear Clear  
Wind Chill: 64°   Ceiling: Unl
Heat Index: 64°   Visibility: 10mi
Dew Point: 55°   Wind: 5mph
Humidity: 73%   Direction: 210°SSW
Pressure: 30.16"   Gusts: NA
Location:  36.88°N, 93.35°W
Report Text: KFWB 241615Z AUTO 21004KT 10SM CLR 18/13 A3016 RMK AO2
Loading
Personal Weather Stations






























Interactive Weather Map
Tropical Storm Tracking
New forecast layout! Learn more

10-Day Weather Forecast

Advertisements
Track Severe Weather on mobile